createdAt,value
2022-10-07T00:01:21.985Z,12.40
2022-10-07T00:03:49.005Z,12.50
2022-10-07T00:06:21.488Z,12.70
2022-10-07T00:08:53.097Z,12.60
2022-10-07T00:11:25.880Z,12.70
2022-10-07T00:14:01.321Z,12.60
2022-10-07T00:16:37.365Z,12.80
2022-10-07T00:19:14.311Z,12.80
2022-10-07T00:21:50.858Z,12.90
2022-10-07T00:24:23.225Z,12.80
2022-10-07T00:26:50.303Z,12.80
2022-10-07T00:29:23.645Z,12.60
2022-10-07T00:31:57.194Z,12.80
2022-10-07T00:34:25.661Z,12.90
2022-10-07T00:36:52.665Z,13.00
2022-10-07T00:39:19.810Z,13.00
2022-10-07T00:41:56.025Z,13.10
2022-10-07T00:44:32.478Z,13.00
2022-10-07T00:47:20.354Z,12.90
2022-10-07T00:50:11.532Z,13.00
2022-10-07T00:52:44.458Z,13.10
2022-10-07T00:55:23.368Z,13.00
2022-10-07T00:58:12.958Z,12.90
2022-10-07T01:00:47.657Z,12.90
2022-10-07T01:03:19.038Z,13.10
2022-10-07T01:05:57.771Z,13.00
2022-10-07T01:08:26.343Z,13.00
2022-10-07T01:11:35.257Z,12.90
2022-10-07T01:14:33.230Z,12.90
2022-10-07T01:17:31.921Z,12.90
2022-10-07T01:20:24.946Z,12.90
2022-10-07T01:23:07.013Z,12.90
2022-10-07T01:25:46.333Z,12.90
2022-10-07T01:28:22.733Z,12.80
2022-10-07T01:30:58.880Z,12.90
2022-10-07T01:33:29.399Z,12.90
2022-10-07T01:36:00.368Z,12.90
2022-10-07T01:38:29.082Z,12.80
2022-10-07T01:41:04.476Z,12.90
2022-10-07T01:43:32.926Z,12.80
2022-10-07T01:45:59.911Z,12.80
2022-10-07T01:48:26.750Z,12.90
2022-10-07T01:50:57.143Z,12.90
2022-10-07T01:53:51.163Z,12.80
2022-10-07T01:56:26.849Z,12.70
2022-10-07T01:59:18.634Z,12.60
2022-10-07T02:01:56.276Z,12.70
2022-10-07T02:04:26.293Z,12.60
2022-10-07T02:07:11.213Z,12.70
2022-10-07T02:09:59.300Z,12.70
2022-10-07T02:12:57.575Z,12.60
2022-10-07T02:15:35.002Z,12.60
2022-10-07T02:18:07.377Z,12.70
2022-10-07T02:20:37.815Z,12.70
2022-10-07T02:23:08.450Z,12.70
2022-10-07T02:25:39.759Z,12.80
2022-10-07T02:28:09.297Z,12.90
2022-10-07T02:30:37.771Z,12.90
2022-10-07T02:33:08.010Z,12.80
2022-10-07T02:35:47.573Z,13.00
2022-10-07T02:38:16.711Z,12.80
2022-10-07T02:41:31.639Z,12.90
2022-10-07T02:44:29.015Z,12.70
2022-10-07T02:47:06.875Z,12.90
2022-10-07T02:49:38.101Z,12.80
2022-10-07T02:52:13.986Z,12.70
2022-10-07T02:54:56.315Z,12.80
2022-10-07T02:57:24.755Z,12.70
2022-10-07T02:59:52.491Z,12.80
2022-10-07T03:02:56.365Z,12.70
2022-10-07T03:05:29.480Z,12.70
2022-10-07T03:08:03.944Z,12.70
2022-10-07T03:10:32.735Z,12.50
2022-10-07T03:13:00.418Z,12.60
2022-10-07T03:15:28.105Z,12.60
2022-10-07T03:17:55.982Z,12.60
2022-10-07T03:20:22.886Z,12.70
2022-10-07T03:22:50.294Z,12.60
2022-10-07T03:25:19.036Z,12.60
2022-10-07T03:27:48.416Z,12.60
2022-10-07T03:30:15.691Z,12.50
2022-10-07T03:32:42.481Z,12.60
2022-10-07T03:35:10.673Z,12.60
2022-10-07T03:37:38.286Z,12.60
2022-10-07T03:40:07.590Z,12.60
2022-10-07T03:42:34.580Z,12.60
2022-10-07T03:45:01.568Z,12.50
2022-10-07T03:47:28.817Z,12.60
2022-10-07T03:49:56.707Z,12.50
2022-10-07T03:52:24.194Z,12.60
2022-10-07T03:54:53.191Z,12.50
2022-10-07T03:57:38.454Z,12.60
2022-10-07T04:00:06.510Z,12.70
2022-10-07T04:02:41.580Z,12.50
2022-10-07T04:05:09.451Z,12.40
2022-10-07T04:07:36.822Z,12.50
2022-10-07T04:10:04.126Z,12.60
2022-10-07T04:12:33.378Z,12.50
2022-10-07T04:15:01.942Z,12.60
2022-10-07T04:17:29.946Z,12.60
2022-10-07T04:19:57.889Z,12.30
2022-10-07T04:22:27.781Z,12.40
2022-10-07T04:25:13.082Z,12.50
2022-10-07T04:27:51.693Z,12.50
2022-10-07T04:30:20.202Z,12.50
2022-10-07T04:32:50.722Z,12.50
2022-10-07T04:35:22.259Z,12.70
2022-10-07T04:37:51.365Z,12.50
2022-10-07T04:40:19.967Z,12.50
2022-10-07T04:43:06.781Z,12.30
2022-10-07T04:45:35.559Z,12.40
2022-10-07T04:48:05.694Z,12.50
2022-10-07T04:50:34.175Z,12.40
2022-10-07T04:53:01.436Z,12.50
2022-10-07T04:55:37.275Z,12.60
2022-10-07T04:58:05.079Z,12.40
2022-10-07T05:00:33.262Z,12.50
2022-10-07T05:03:00.341Z,12.40
2022-10-07T05:05:28.022Z,12.40
2022-10-07T05:07:55.267Z,12.50
2022-10-07T05:10:24.323Z,12.40
2022-10-07T05:12:55.751Z,12.40
2022-10-07T05:15:23.681Z,12.30
2022-10-07T05:17:55.930Z,12.50
2022-10-07T05:20:26.659Z,12.50
2022-10-07T05:22:55.003Z,12.50
2022-10-07T05:25:21.995Z,12.50
2022-10-07T05:27:55.724Z,12.50
2022-10-07T05:30:22.730Z,12.50
2022-10-07T05:32:50.498Z,12.50
2022-10-07T05:35:17.768Z,12.60
2022-10-07T05:37:50.167Z,12.60
2022-10-07T05:40:20.162Z,12.50
2022-10-07T05:42:47.540Z,12.50
2022-10-07T05:45:14.334Z,12.60
2022-10-07T05:47:41.299Z,12.70
2022-10-07T05:50:08.962Z,12.70
2022-10-07T05:52:36.178Z,12.60
2022-10-07T05:55:03.219Z,12.60
2022-10-07T05:57:30.721Z,12.60
2022-10-07T05:59:58.994Z,12.80
2022-10-07T06:02:26.591Z,12.70
2022-10-07T06:04:53.933Z,12.60
2022-10-07T06:07:27.053Z,12.70
2022-10-07T06:10:14.628Z,12.50
2022-10-07T06:12:59.875Z,12.60
2022-10-07T06:15:26.833Z,12.80
2022-10-07T06:17:53.749Z,12.80
2022-10-07T06:20:21.654Z,12.90
2022-10-07T06:22:53.387Z,12.80
2022-10-07T06:25:21.057Z,12.90
2022-10-07T06:27:53.733Z,12.90
2022-10-07T06:30:21.817Z,12.90
2022-10-07T06:32:49.090Z,13.00
2022-10-07T06:35:17.084Z,12.90
2022-10-07T06:37:44.370Z,12.90
2022-10-07T06:40:11.920Z,13.00
2022-10-07T06:42:39.383Z,13.10
2022-10-07T06:45:23.483Z,12.80
2022-10-07T06:47:53.306Z,13.00
2022-10-07T06:50:21.702Z,13.00
2022-10-07T06:52:48.867Z,13.00
2022-10-07T06:55:16.122Z,13.00
2022-10-07T06:57:46.090Z,13.00
2022-10-07T07:00:16.050Z,13.10
2022-10-07T07:02:44.476Z,13.10
2022-10-07T07:05:14.440Z,13.20
2022-10-07T07:07:42.314Z,13.00
2022-10-07T07:10:09.550Z,13.20
2022-10-07T07:12:40.717Z,13.30
2022-10-07T07:15:09.744Z,13.30
2022-10-07T07:17:38.230Z,13.40
2022-10-07T07:20:06.050Z,13.50
2022-10-07T07:22:32.830Z,13.50
2022-10-07T07:24:59.789Z,13.50
2022-10-07T07:27:26.587Z,13.50
2022-10-07T07:29:53.351Z,13.80
2022-10-07T07:32:20.602Z,13.80
2022-10-07T07:34:47.771Z,13.80
2022-10-07T07:37:20.392Z,13.80
2022-10-07T07:39:51.362Z,14.00
2022-10-07T07:42:18.992Z,14.00
2022-10-07T07:44:46.751Z,14.10
2022-10-07T07:47:17.097Z,14.10
2022-10-07T07:49:45.828Z,14.20
2022-10-07T07:52:17.667Z,14.30
2022-10-07T07:54:51.877Z,14.40
2022-10-07T07:57:19.586Z,14.40
2022-10-07T07:59:46.735Z,14.40
2022-10-07T08:02:16.497Z,14.50
2022-10-07T08:04:47.893Z,14.50
2022-10-07T08:07:15.493Z,14.60
2022-10-07T08:09:45.430Z,14.70
2022-10-07T08:12:14.527Z,14.60
2022-10-07T08:14:43.136Z,14.60
2022-10-07T08:17:10.037Z,14.80
2022-10-07T08:19:37.354Z,14.80
2022-10-07T08:22:04.884Z,14.90
2022-10-07T08:24:32.432Z,14.90
2022-10-07T08:27:05.101Z,15.00
2022-10-07T08:29:31.920Z,15.10
2022-10-07T08:31:58.800Z,15.20
2022-10-07T08:34:25.629Z,15.10
2022-10-07T08:36:52.382Z,15.10
2022-10-07T08:39:19.171Z,15.20
2022-10-07T08:42:03.392Z,15.30
2022-10-07T08:44:34.207Z,15.40
2022-10-07T08:47:08.752Z,15.50
2022-10-07T08:49:54.474Z,15.50
2022-10-07T08:52:34.249Z,15.50
2022-10-07T08:55:01.626Z,15.60
2022-10-07T08:57:43.484Z,15.60
2022-10-07T09:00:13.747Z,15.70
2022-10-07T09:03:06.527Z,15.80
2022-10-07T09:05:45.719Z,15.80
2022-10-07T09:08:20.609Z,15.80
2022-10-07T09:10:50.201Z,15.90
2022-10-07T09:13:29.284Z,15.90
2022-10-07T09:16:16.069Z,16.00
2022-10-07T09:18:53.406Z,16.00
2022-10-07T09:21:25.576Z,16.20
2022-10-07T09:23:58.616Z,16.20
2022-10-07T09:26:26.757Z,16.30
2022-10-07T09:28:53.780Z,16.30
2022-10-07T09:31:24.786Z,16.40
2022-10-07T09:33:53.962Z,16.50
2022-10-07T09:36:20.876Z,16.50
2022-10-07T09:38:50.446Z,16.60
2022-10-07T09:41:32.880Z,16.60
2022-10-07T09:44:11.007Z,16.70
2022-10-07T09:46:53.682Z,16.60
2022-10-07T09:49:31.552Z,16.70
2022-10-07T09:52:07.361Z,16.80
2022-10-07T09:54:36.502Z,16.70
2022-10-07T09:57:05.745Z,16.80
2022-10-07T09:59:36.942Z,16.90
2022-10-07T10:02:24.911Z,16.80
2022-10-07T10:04:57.225Z,17.00
2022-10-07T10:07:36.190Z,17.00
2022-10-07T10:10:18.208Z,17.00
2022-10-07T10:12:48.270Z,17.10
2022-10-07T10:15:24.364Z,17.10
2022-10-07T10:17:51.709Z,17.20
2022-10-07T10:20:21.211Z,17.20
2022-10-07T10:22:48.346Z,17.20
2022-10-07T10:25:37.559Z,17.20
2022-10-07T10:28:35.772Z,17.30
2022-10-07T10:31:17.817Z,17.40
2022-10-07T10:34:02.803Z,17.60
2022-10-07T10:36:33.019Z,17.60
2022-10-07T10:39:11.509Z,17.50
2022-10-07T10:41:52.441Z,17.40
2022-10-07T10:44:37.816Z,17.60
2022-10-07T10:47:13.637Z,17.60
2022-10-07T10:50:04.814Z,17.70
2022-10-07T10:52:49.979Z,17.70
2022-10-07T10:56:01.563Z,17.70
2022-10-07T10:58:34.326Z,17.70
2022-10-07T11:01:12.939Z,17.70
2022-10-07T11:04:18.442Z,17.70
2022-10-07T11:06:51.069Z,17.80
2022-10-07T11:09:30.493Z,17.80
2022-10-07T11:12:00.587Z,17.70
2022-10-07T11:14:30.122Z,17.90
2022-10-07T11:17:02.853Z,18.00
2022-10-07T11:19:32.174Z,17.90
2022-10-07T11:22:00.406Z,17.90
2022-10-07T11:24:56.906Z,17.90
2022-10-07T11:27:29.725Z,17.70
2022-10-07T11:30:03.968Z,17.50
2022-10-07T11:32:57.984Z,17.40
2022-10-07T11:35:43.979Z,17.50
2022-10-07T11:38:10.813Z,17.60
2022-10-07T11:41:00.342Z,17.70
2022-10-07T11:43:35.467Z,17.70
2022-10-07T11:46:20.306Z,17.70
2022-10-07T11:48:57.953Z,17.70
2022-10-07T11:51:31.016Z,17.80
2022-10-07T11:54:02.898Z,17.80
2022-10-07T11:57:00.337Z,17.80
2022-10-07T11:59:46.009Z,17.70
2022-10-07T12:02:28.276Z,17.60
2022-10-07T12:04:57.472Z,17.80
2022-10-07T12:07:38.601Z,17.70
2022-10-07T12:10:27.234Z,17.70
2022-10-07T12:13:00.474Z,17.90
2022-10-07T12:15:41.974Z,18.00
2022-10-07T12:18:12.330Z,18.00
2022-10-07T12:20:45.058Z,17.90
2022-10-07T12:23:20.768Z,18.00
2022-10-07T12:26:30.444Z,18.00
2022-10-07T12:28:57.774Z,17.90
2022-10-07T12:31:24.517Z,17.90
2022-10-07T12:34:08.459Z,17.90
2022-10-07T12:36:36.401Z,17.80
2022-10-07T12:39:09.548Z,17.90
2022-10-07T12:41:39.681Z,17.90
2022-10-07T12:44:38.599Z,18.00
2022-10-07T12:47:15.056Z,18.10
2022-10-07T12:49:52.063Z,18.20
2022-10-07T12:52:44.331Z,18.20
2022-10-07T12:55:38.966Z,18.30
2022-10-07T12:58:39.107Z,18.50
2022-10-07T13:01:32.762Z,18.60
2022-10-07T13:04:05.499Z,18.60
2022-10-07T13:06:32.208Z,18.80
2022-10-07T13:09:27.147Z,18.90
2022-10-07T13:12:06.785Z,18.90
2022-10-07T13:14:52.488Z,18.90
2022-10-07T13:17:41.366Z,19.10
2022-10-07T13:20:50.784Z,19.10
2022-10-07T13:23:24.529Z,19.00
2022-10-07T13:25:56.164Z,19.10
2022-10-07T13:28:45.231Z,19.00
2022-10-07T13:31:20.316Z,19.10
2022-10-07T13:33:48.357Z,19.20
2022-10-07T13:36:27.986Z,19.20
2022-10-07T13:39:10.379Z,19.10
2022-10-07T13:41:39.753Z,19.20
2022-10-07T13:44:06.756Z,19.20
2022-10-07T13:46:36.048Z,19.20
2022-10-07T13:49:03.321Z,19.10
2022-10-07T13:51:36.506Z,19.10
2022-10-07T13:54:17.500Z,19.10
2022-10-07T13:56:45.371Z,19.20
2022-10-07T13:59:17.998Z,19.10
2022-10-07T14:02:07.577Z,19.10
2022-10-07T14:04:34.557Z,19.00
2022-10-07T14:07:09.282Z,19.00
2022-10-07T14:10:00.148Z,19.00
2022-10-07T14:12:32.374Z,19.00
2022-10-07T14:15:13.287Z,19.00
2022-10-07T14:17:54.668Z,19.00
2022-10-07T14:20:32.006Z,19.00
2022-10-07T14:23:19.261Z,19.00
2022-10-07T14:26:17.608Z,19.00
2022-10-07T14:28:44.935Z,19.00
2022-10-07T14:31:37.737Z,19.00
2022-10-07T14:34:37.071Z,19.00
2022-10-07T14:37:10.754Z,19.00
2022-10-07T14:39:49.115Z,19.00
2022-10-07T14:42:32.915Z,18.90
2022-10-07T14:45:03.084Z,18.90
2022-10-07T14:47:37.136Z,19.00
2022-10-07T14:50:04.481Z,18.90
2022-10-07T14:52:43.500Z,18.80
2022-10-07T14:55:29.888Z,18.80
2022-10-07T14:57:56.711Z,18.80
2022-10-07T15:00:25.572Z,18.80
2022-10-07T15:02:54.483Z,18.70
2022-10-07T15:05:22.919Z,18.70
2022-10-07T15:07:50.770Z,18.70
2022-10-07T15:10:20.988Z,18.60
2022-10-07T15:12:48.646Z,18.60
2022-10-07T15:15:16.449Z,18.50
2022-10-07T15:17:44.391Z,18.40
2022-10-07T15:20:14.154Z,18.30
2022-10-07T15:22:41.517Z,18.10
2022-10-07T15:25:10.330Z,18.00
2022-10-07T15:27:37.864Z,17.90
2022-10-07T15:30:07.179Z,17.90
2022-10-07T15:32:34.195Z,17.90
2022-10-07T15:35:01.591Z,17.80
2022-10-07T15:37:28.551Z,17.70
2022-10-07T15:39:55.521Z,17.70
2022-10-07T15:42:25.600Z,17.60
2022-10-07T15:44:52.890Z,17.60
2022-10-07T15:47:19.921Z,17.50
2022-10-07T15:49:46.779Z,17.40
2022-10-07T15:52:13.586Z,17.30
2022-10-07T15:54:40.443Z,17.30
2022-10-07T15:57:08.360Z,17.20
2022-10-07T15:59:35.707Z,17.20
2022-10-07T16:02:03.832Z,17.10
2022-10-07T16:04:30.621Z,17.00
2022-10-07T16:06:58.107Z,17.00
2022-10-07T16:09:25.141Z,17.00
2022-10-07T16:11:52.121Z,17.00
2022-10-07T16:14:18.918Z,17.00
2022-10-07T16:16:46.124Z,16.90
2022-10-07T16:19:13.066Z,16.80
2022-10-07T16:21:41.990Z,16.80
2022-10-07T16:24:17.191Z,16.70
2022-10-07T16:26:45.162Z,16.70
2022-10-07T16:29:36.755Z,16.80
2022-10-07T16:32:04.697Z,16.70
2022-10-07T19:23:15.997Z,14.30
2022-10-07T19:25:48.667Z,14.20
2022-10-07T19:28:15.487Z,14.10
2022-10-07T19:30:42.651Z,14.20
2022-10-07T19:33:10.937Z,14.00
2022-10-07T19:35:38.556Z,13.90
2022-10-07T19:38:06.168Z,14.00
2022-10-07T19:40:44.564Z,13.70
2022-10-07T19:43:12.096Z,13.70
2022-10-07T19:45:40.621Z,13.70
2022-10-07T19:48:13.997Z,13.40
2022-10-07T19:50:41.352Z,13.40
2022-10-07T19:53:08.221Z,13.10
2022-10-07T19:55:35.166Z,13.30
2022-10-07T19:58:03.102Z,13.40
2022-10-07T20:00:31.100Z,13.20
2022-10-07T20:03:00.513Z,13.10
2022-10-07T20:05:29.135Z,13.00
2022-10-07T20:07:59.504Z,13.10
2022-10-07T20:10:34.424Z,13.00
2022-10-07T20:13:04.670Z,12.60
2022-10-07T20:15:31.550Z,12.60
2022-10-07T20:18:03.637Z,12.70
2022-10-07T20:20:38.318Z,12.80
2022-10-07T20:23:09.043Z,12.70
2022-10-07T20:25:38.385Z,12.80
2022-10-07T20:28:05.700Z,12.70
2022-10-07T20:30:34.870Z,12.70
2022-10-07T20:33:12.736Z,13.10
2022-10-07T20:35:42.570Z,13.10
2022-10-07T20:38:29.301Z,13.30
2022-10-07T20:41:23.800Z,13.30
2022-10-07T20:43:50.671Z,13.50
2022-10-07T20:46:23.519Z,13.60
2022-10-07T20:48:53.852Z,13.60
2022-10-07T20:51:22.867Z,13.50
2022-10-07T20:54:00.536Z,13.40
2022-10-07T20:56:34.066Z,13.20
2022-10-07T20:59:00.901Z,13.30
2022-10-07T21:01:53.803Z,13.20
2022-10-07T21:04:26.914Z,13.20
2022-10-07T21:06:54.515Z,13.10
2022-10-07T21:09:21.341Z,13.20
2022-10-07T21:11:49.303Z,13.30
2022-10-07T21:14:22.776Z,13.40
2022-10-07T21:16:52.388Z,13.20
2022-10-07T21:19:19.476Z,13.00
2022-10-07T21:21:50.698Z,12.50
2022-10-07T21:24:20.910Z,12.60
2022-10-07T21:26:49.874Z,12.60
2022-10-07T21:29:24.389Z,12.50
2022-10-07T21:31:53.209Z,12.40
2022-10-07T21:37:01.764Z,12.60
2022-10-07T21:39:28.964Z,12.40
2022-10-07T21:42:13.218Z,12.80
2022-10-07T21:44:43.134Z,12.70
2022-10-07T21:47:13.524Z,12.70
2022-10-07T21:49:41.131Z,12.60
2022-10-07T21:52:07.930Z,12.50
2022-10-07T21:54:40.773Z,12.60
2022-10-07T21:57:16.474Z,12.70
2022-10-07T21:59:46.123Z,12.90
2022-10-07T22:02:15.994Z,12.80
2022-10-07T22:04:50.976Z,12.70
2022-10-07T22:07:36.290Z,12.80
2022-10-07T22:10:03.345Z,12.70
2022-10-07T22:12:30.185Z,12.60
2022-10-07T22:15:03.223Z,12.30
2022-10-07T22:17:34.786Z,12.30
2022-10-07T22:20:02.337Z,12.50
2022-10-07T22:22:29.159Z,12.60
2022-10-07T22:24:58.744Z,12.50
2022-10-07T22:27:26.167Z,12.40
2022-10-07T22:29:52.974Z,12.60
2022-10-07T22:32:19.774Z,12.50
2022-10-07T22:35:11.210Z,12.50
2022-10-07T22:37:38.297Z,12.40
2022-10-07T22:40:05.738Z,12.30
2022-10-07T22:42:35.957Z,12.30
2022-10-07T22:45:02.845Z,12.30
2022-10-07T22:47:29.585Z,12.30
2022-10-07T22:49:56.333Z,12.20
2022-10-07T22:52:23.145Z,12.10
2022-10-07T22:54:49.898Z,12.00
2022-10-07T22:57:18.985Z,12.10
2022-10-07T22:59:45.768Z,12.10
2022-10-07T23:02:12.599Z,12.10
2022-10-07T23:04:39.399Z,12.00
2022-10-07T23:07:06.208Z,12.20
2022-10-07T23:09:32.991Z,12.00
2022-10-07T23:11:59.854Z,12.10
2022-10-07T23:14:26.660Z,12.30
2022-10-07T23:16:53.436Z,12.40
2022-10-07T23:19:22.303Z,12.30
2022-10-07T23:21:49.132Z,12.60
2022-10-07T23:24:16.022Z,12.30
2022-10-07T23:26:46.025Z,12.40
2022-10-07T23:29:13.327Z,12.20
2022-10-07T23:31:40.361Z,12.20
2022-10-07T23:34:07.221Z,12.20
2022-10-07T23:36:34.769Z,12.20
2022-10-07T23:39:01.675Z,12.20
2022-10-07T23:41:30.501Z,12.10
2022-10-07T23:43:59.327Z,12.00
2022-10-07T23:46:28.003Z,12.00
2022-10-07T23:48:56.054Z,12.00
2022-10-07T23:51:26.090Z,12.00
2022-10-07T23:53:53.213Z,12.10
2022-10-07T23:56:20.067Z,12.00
2022-10-07T23:58:47.181Z,12.00
